Time;durP1;ratioP1;P1;durP2;ratioP2;P2;SDS_P1;SDS_P2;PMS_P1;PMS_P2;Temp;Humidity;BMP_temperature;BMP_pressure;BME280_temperature;BME280_humidity;BME280_pressure;Samples;Min_cycle;Max_cycle;Signal;HPM_P1;HPM_P2
2023/03/31 00:00:10;;;;;;;;;;;;;;;19.04;100.00;100191.81;4984547;28;19937;-53
2023/03/31 00:02:36;;;;;;;;;;;;;;;19.33;100.00;100187.78;4986392;28;19944;-56
2023/03/31 00:05:01;;;;;;;;;;;;;;;19.01;100.00;100186.94;4985653;28;19914;-50
2023/03/31 00:07:26;;;;;;;;;;;;;;;20.40;93.96;100181.66;4986163;28;19949;-53
2023/03/31 00:09:54;;;;;;;;;;;;;;;19.40;97.88;100165.84;4989229;28;19925;-54
2023/03/31 00:12:20;;;;;;;;;;;;;;;19.20;100.00;100162.81;4983910;28;20418;-52
2023/03/31 00:14:46;;;;;;;;;;;;;;;19.08;100.00;100153.34;4986428;28;19977;-54
2023/03/31 00:17:12;;;;;;;;;;;;;;;18.54;100.00;100158.06;4983660;28;19918;-54
2023/03/31 00:19:38;;;;;;;;;;;;;;;18.92;100.00;100151.38;4982918;28;19922;-51
2023/03/31 00:22:04;;;;;;;;;;;;;;;18.81;100.00;100143.50;4979578;28;19914;-55
2023/03/31 00:24:31;;;;;;;;;;;;;;;18.65;100.00;100143.47;4983318;28;19918;-52
2023/03/31 00:27:03;;;;;;;;;;;;;;;19.41;100.00;100135.72;4982114;28;19914;-51
2023/03/31 00:29:30;;;;;;;;;;;;;;;18.82;100.00;100128.88;4986346;28;19914;-51
2023/03/31 00:31:56;;;;;;;;;;;;;;;19.23;100.00;100128.97;4981705;28;19920;-53
2023/03/31 00:34:21;;;;;;;;;;;;;;;18.55;100.00;100130.72;4987161;28;19926;-55
2023/03/31 00:36:47;;;;;;;;;;;;;;;18.51;100.00;100129.63;4977777;28;19914;-52
2023/03/31 00:39:14;;;;;;;;;;;;;;;18.71;100.00;100118.03;4982232;28;19918;-56
2023/03/31 00:41:40;;;;;;;;;;;;;;;18.74;100.00;100112.09;4967291;28;19914;-54
2023/03/31 00:44:17;;;;;;;;;;;;;;;19.94;100.00;100110.16;4984983;28;20255;-53
2023/03/31 00:46:51;;;;;;;;;;;;;;;18.87;100.00;100089.09;4981528;28;19918;-54
2023/03/31 00:49:22;;;;;;;;;;;;;;;18.92;100.00;100096.41;4981308;28;19918;-51
2023/03/31 00:51:49;;;;;;;;;;;;;;;18.23;100.00;100082.19;4982079;28;19978;-52
2023/03/31 00:54:14;;;;;;;;;;;;;;;18.32;100.00;100083.28;4979520;28;19960;-57
2023/03/31 00:56:43;;;;;;;;;;;;;;;20.89;100.00;100076.84;4986873;28;20383;-51
2023/03/31 00:59:10;;;;;;;;;;;;;;;19.90;99.59;100077.31;4986505;28;19967;-53
2023/03/31 01:01:38;;;;;;;;;;;;;;;18.46;100.00;100068.16;4987903;28;19953;-53
2023/03/31 01:04:06;;;;;;;;;;;;;;;18.54;100.00;100063.31;4984964;28;19927;-51
2023/03/31 01:06:32;;;;;;;;;;;;;;;18.81;100.00;100062.25;4968405;28;19937;-53
2023/03/31 01:08:58;;;;;;;;;;;;;;;18.56;100.00;100055.72;4973791;28;19914;-52
2023/03/31 01:11:26;;;;;;;;;;;;;;;18.43;100.00;100051.63;4984016;28;19940;-54
2023/03/31 01:13:55;;;;;;;;;;;;;;;19.84;100.00;100051.31;4992290;28;19925;-55
2023/03/31 01:16:21;;;;;;;;;;;;;;;18.62;100.00;100043.81;4987892;28;19973;-55
2023/03/31 01:18:48;;;;;;;;;;;;;;;18.77;100.00;100034.88;4985226;28;19914;-54
2023/03/31 01:21:30;;;;;;;;;;;;;;;18.56;100.00;100034.06;4971653;28;19914;-57
2023/03/31 01:23:59;;;;;;;;;;;;;;;18.96;100.00;100021.63;4981650;28;19909;-50
2023/03/31 01:26:37;;;;;;;;;;;;;;;20.24;100.00;100031.59;4991856;28;19914;-54
2023/03/31 01:29:07;;;;;;;;;;;;;;;20.33;100.00;100027.22;4972493;28;19919;-53
2023/03/31 01:31:59;;;;;;;;;;;;;;;18.40;100.00;100012.38;4999958;28;19925;-55
2023/03/31 01:34:44;;;;;;;;;;;;;;;18.16;100.00;99996.63;4983904;28;19920;-52
2023/03/31 01:37:15;;;;;;;;;;;;;;;20.47;100.00;99998.31;4987070;28;19971;-52
2023/03/31 01:39:56;;;;;;;;;;;;;;;19.15;100.00;99989.38;4984343;28;19922;-57
2023/03/31 01:42:21;;;;;;;;;;;;;;;18.54;100.00;99984.78;4981538;28;19918;-54
2023/03/31 01:44:55;;;;;;;;;;;;;;;18.44;100.00;99977.47;4990053;28;19960;-55
2023/03/31 01:47:30;;;;;;;;;;;;;;;18.29;100.00;99965.53;4971686;28;20300;-52
2023/03/31 01:50:01;;;;;;;;;;;;;;;19.02;100.00;99960.97;4987876;28;21453;-55
2023/03/31 01:52:31;;;;;;;;;;;;;;;18.66;100.00;99954.72;4989285;28;19914;-52
2023/03/31 01:55:05;;;;;;;;;;;;;;;18.88;100.00;99962.56;4976713;28;19910;-55
2023/03/31 01:57:35;;;;;;;;;;;;;;;19.21;100.00;99944.13;4984922;28;19914;-54
2023/03/31 02:00:04;;;;;;;;;;;;;;;18.59;100.00;99936.03;4983071;28;19932;-54
2023/03/31 02:02:41;;;;;;;;;;;;;;;18.40;100.00;99944.69;4980136;28;19918;-56
2023/03/31 02:05:25;;;;;;;;;;;;;;;18.48;100.00;99935.22;4982673;28;19914;-55
2023/03/31 02:07:57;;;;;;;;;;;;;;;18.26;100.00;99924.69;4984334;28;19911;-53
2023/03/31 02:10:24;;;;;;;;;;;;;;;18.98;100.00;99927.38;4982501;28;19923;-56
2023/03/31 02:12:50;;;;;;;;;;;;;;;18.89;100.00;99915.41;4978139;28;19914;-55
2023/03/31 02:15:20;;;;;;;;;;;;;;;18.88;100.00;99911.09;4982993;28;19914;-56
2023/03/31 02:17:48;;;;;;;;;;;;;;;18.20;100.00;99907.63;4982211;28;19925;-54
2023/03/31 02:20:16;;;;;;;;;;;;;;;17.95;100.00;99900.25;4984263;28;19920;-56
2023/03/31 02:22:45;;;;;;;;;;;;;;;17.84;100.00;99902.09;4984826;28;19918;-57
2023/03/31 02:25:13;;;;;;;;;;;;;;;18.15;100.00;99880.56;4984900;28;19929;-55
2023/03/31 02:27:41;;;;;;;;;;;;;;;18.67;100.00;99881.34;4979709;28;19914;-56
2023/03/31 02:30:07;;;;;;;;;;;;;;;17.95;100.00;99870.47;4979872;28;20238;-56
2023/03/31 02:32:37;;;;;;;;;;;;;;;18.02;100.00;99866.47;4983929;28;19928;-56
2023/03/31 02:35:05;;;;;;;;;;;;;;;18.18;100.00;99859.16;4980371;28;19969;-51
2023/03/31 02:37:31;;;;;;;;;;;;;;;18.27;100.00;99850.53;4987403;28;19918;-56
2023/03/31 02:39:58;;;;;;;;;;;;;;;17.88;100.00;99849.94;4981909;28;19928;-51
2023/03/31 02:42:24;;;;;;;;;;;;;;;18.05;100.00;99830.75;4983263;28;19922;-56
2023/03/31 02:44:50;;;;;;;;;;;;;;;18.70;100.00;99826.66;4983687;28;19921;-54
2023/03/31 02:47:18;;;;;;;;;;;;;;;18.83;100.00;99827.13;4980346;28;19977;-55
2023/03/31 02:49:46;;;;;;;;;;;;;;;18.52;100.00;99810.97;4970525;28;19917;-54
2023/03/31 02:52:15;;;;;;;;;;;;;;;18.55;100.00;99810.44;4983803;28;19944;-57
2023/03/31 02:54:45;;;;;;;;;;;;;;;18.61;100.00;99798.50;4991464;28;19927;-56
2023/03/31 02:57:10;;;;;;;;;;;;;;;18.35;100.00;99787.72;4987922;28;19949;-52
2023/03/31 02:59:47;;;;;;;;;;;;;;;18.16;100.00;99779.38;4990508;28;19922;-56
2023/03/31 03:02:22;;;;;;;;;;;;;;;18.22;100.00;99790.97;4982228;28;19914;-54
2023/03/31 03:05:07;;;;;;;;;;;;;;;18.18;100.00;99778.00;4990366;28;19921;-56
2023/03/31 03:07:46;;;;;;;;;;;;;;;18.11;100.00;99763.16;4998279;28;19921;-50
2023/03/31 03:10:34;;;;;;;;;;;;;;;17.96;100.00;99759.34;5004755;28;19914;-51
2023/03/31 03:13:09;;;;;;;;;;;;;;;18.54;100.00;99755.47;4990471;28;19913;-53
2023/03/31 03:15:45;;;;;;;;;;;;;;;18.56;100.00;99744.38;5002389;28;19946;-56
2023/03/31 03:18:10;;;;;;;;;;;;;;;18.01;100.00;99751.25;4990040;28;19918;-54
2023/03/31 03:20:37;;;;;;;;;;;;;;;17.98;100.00;99742.81;4990395;28;19910;-56
2023/03/31 03:23:03;;;;;;;;;;;;;;;17.91;100.00;99743.13;4994696;28;19991;-53
2023/03/31 03:25:29;;;;;;;;;;;;;;;18.15;100.00;99737.97;4987986;28;19914;-54
2023/03/31 03:27:55;;;;;;;;;;;;;;;18.03;100.00;99735.53;4993130;28;19977;-54
2023/03/31 03:30:20;;;;;;;;;;;;;;;18.03;100.00;99732.03;4991715;28;19914;-52
2023/03/31 03:32:46;;;;;;;;;;;;;;;17.68;100.00;99706.59;4987258;28;19914;-56
2023/03/31 03:35:12;;;;;;;;;;;;;;;18.17;100.00;99703.31;4984262;28;19933;-54
2023/03/31 03:37:37;;;;;;;;;;;;;;;18.75;100.00;99702.06;4987386;28;19918;-56
2023/03/31 03:40:04;;;;;;;;;;;;;;;18.94;100.00;99682.47;4988784;28;19965;-54
2023/03/31 03:42:30;;;;;;;;;;;;;;;18.58;100.00;99669.91;4987484;28;19919;-55
2023/03/31 03:44:55;;;;;;;;;;;;;;;18.72;100.00;99686.38;4989436;28;19914;-56
2023/03/31 03:47:20;;;;;;;;;;;;;;;19.24;100.00;99688.81;4986687;28;19914;-57
2023/03/31 03:49:47;;;;;;;;;;;;;;;19.10;100.00;99671.53;4969204;28;19954;-60
2023/03/31 03:52:14;;;;;;;;;;;;;;;18.72;100.00;99670.13;4985207;28;19987;-57
2023/03/31 03:54:39;;;;;;;;;;;;;;;18.54;100.00;99662.63;4986460;28;19938;-59
2023/03/31 03:57:06;;;;;;;;;;;;;;;18.16;100.00;99663.81;4990403;28;20384;-57
2023/03/31 03:59:31;;;;;;;;;;;;;;;18.14;100.00;99652.47;4984991;28;19914;-57
2023/03/31 04:01:57;;;;;;;;;;;;;;;18.23;100.00;99635.69;4990814;28;19921;-55
2023/03/31 04:04:22;;;;;;;;;;;;;;;18.16;100.00;99627.84;4992398;28;19957;-57
2023/03/31 04:06:48;;;;;;;;;;;;;;;17.99;100.00;99620.00;4993865;28;19914;-57
2023/03/31 04:09:13;;;;;;;;;;;;;;;18.35;100.00;99598.28;4991028;28;19914;-58
2023/03/31 04:11:39;;;;;;;;;;;;;;;18.17;100.00;99589.69;4986384;28;19949;-57
2023/03/31 04:14:04;;;;;;;;;;;;;;;18.15;100.00;99580.25;4989668;28;19922;-54
2023/03/31 04:16:31;;;;;;;;;;;;;;;17.69;100.00;99573.03;4972526;28;19922;-56
2023/03/31 04:18:57;;;;;;;;;;;;;;;17.89;100.00;99573.00;4987917;28;19914;-55
2023/03/31 04:21:23;;;;;;;;;;;;;;;17.66;100.00;99562.78;4989486;28;19914;-57
2023/03/31 04:24:00;;;;;;;;;;;;;;;18.14;100.00;99557.00;4989334;28;19924;-55
2023/03/31 04:26:30;;;;;;;;;;;;;;;17.75;100.00;99551.13;4989091;28;19914;-57
2023/03/31 04:28:59;;;;;;;;;;;;;;;17.42;100.00;99539.03;4990485;28;19914;-57
2023/03/31 04:31:24;;;;;;;;;;;;;;;17.76;100.00;99541.94;4991360;28;19914;-58
2023/03/31 04:33:53;;;;;;;;;;;;;;;17.82;100.00;99534.63;4994283;28;19967;-58
2023/03/31 04:36:18;;;;;;;;;;;;;;;18.00;100.00;99535.09;4989111;28;19921;-57
2023/03/31 04:38:45;;;;;;;;;;;;;;;18.05;100.00;99524.28;4992578;28;19973;-57
2023/03/31 04:41:13;;;;;;;;;;;;;;;17.54;100.00;99523.34;4987427;28;19924;-55
2023/03/31 04:43:40;;;;;;;;;;;;;;;17.67;100.00;99521.16;4989871;28;19918;-55
2023/03/31 04:46:05;;;;;;;;;;;;;;;18.06;100.00;99515.09;4985625;28;19949;-55
2023/03/31 04:48:30;;;;;;;;;;;;;;;17.13;100.00;99491.00;4994550;28;19910;-56
2023/03/31 04:50:56;;;;;;;;;;;;;;;17.31;100.00;99500.44;4987866;28;19924;-56
2023/03/31 04:53:21;;;;;;;;;;;;;;;18.28;100.00;99498.44;4991509;28;19914;-57
2023/03/31 04:55:50;;;;;;;;;;;;;;;17.87;100.00;99496.75;4990773;28;19914;-59
2023/03/31 04:58:15;;;;;;;;;;;;;;;18.03;100.00;99477.78;4994348;28;19921;-58
2023/03/31 05:00:41;;;;;;;;;;;;;;;17.75;100.00;99480.00;4988647;28;19914;-57
2023/03/31 05:03:07;;;;;;;;;;;;;;;18.44;100.00;99471.28;4990303;28;19929;-56
2023/03/31 05:05:32;;;;;;;;;;;;;;;18.49;100.00;99463.94;4992029;28;19920;-56
2023/03/31 05:07:58;;;;;;;;;;;;;;;17.75;100.00;99464.63;4991998;28;19914;-55
2023/03/31 05:10:24;;;;;;;;;;;;;;;17.99;100.00;99461.25;4973486;28;19914;-57
2023/03/31 05:12:49;;;;;;;;;;;;;;;17.57;100.00;99457.13;4990599;28;19922;-57
2023/03/31 05:15:15;;;;;;;;;;;;;;;17.96;100.00;99447.47;4987400;28;19964;-59
2023/03/31 05:17:41;;;;;;;;;;;;;;;17.89;100.00;99454.00;4991687;28;19939;-53
2023/03/31 05:20:07;;;;;;;;;;;;;;;17.60;100.00;99443.88;4988912;28;19953;-57
2023/03/31 05:22:36;;;;;;;;;;;;;;;17.63;100.00;99428.97;5014094;28;19929;-56
2023/03/31 05:25:04;;;;;;;;;;;;;;;17.52;100.00;99411.97;4989495;28;19960;-58
2023/03/31 05:27:30;;;;;;;;;;;;;;;17.47;100.00;99414.72;4989633;28;19914;-58
2023/03/31 05:29:55;;;;;;;;;;;;;;;17.66;100.00;99416.81;4983697;28;19977;-54
2023/03/31 05:32:21;;;;;;;;;;;;;;;17.81;100.00;99415.91;4986074;28;19913;-59
2023/03/31 05:34:47;;;;;;;;;;;;;;;17.13;100.00;99409.97;4989751;28;19968;-56
2023/03/31 05:37:13;;;;;;;;;;;;;;;17.55;100.00;99400.66;4990236;28;19989;-57
2023/03/31 05:39:38;;;;;;;;;;;;;;;17.52;100.00;99406.56;4985753;28;19944;-56
2023/03/31 05:42:04;;;;;;;;;;;;;;;17.47;100.00;99412.00;4988183;28;20336;-54
2023/03/31 05:44:30;;;;;;;;;;;;;;;17.96;100.00;99425.84;4988915;28;19965;-54
2023/03/31 05:46:55;;;;;;;;;;;;;;;17.53;100.00;99404.69;4991885;28;19921;-55
2023/03/31 05:49:21;;;;;;;;;;;;;;;17.54;100.00;99399.03;4992068;28;19921;-58
2023/03/31 05:51:46;;;;;;;;;;;;;;;17.30;100.00;99378.06;4989206;28;19929;-56
2023/03/31 05:54:12;;;;;;;;;;;;;;;17.52;100.00;99406.56;4986637;28;19932;-55
2023/03/31 05:56:38;;;;;;;;;;;;;;;17.68;100.00;99387.59;4987732;28;19960;-53
2023/03/31 05:59:03;;;;;;;;;;;;;;;16.86;100.00;99394.88;4991938;28;19922;-54
2023/03/31 06:01:29;;;;;;;;;;;;;;;17.04;100.00;99390.81;4993150;28;20364;-53
2023/03/31 06:03:55;;;;;;;;;;;;;;;17.03;100.00;99406.19;4988551;28;19925;-52
2023/03/31 06:06:21;;;;;;;;;;;;;;;16.94;100.00;99398.91;4989549;28;19964;-57
2023/03/31 06:08:47;;;;;;;;;;;;;;;17.11;100.00;99401.34;4987379;28;19914;-54
2023/03/31 06:11:15;;;;;;;;;;;;;;;17.56;100.00;99391.44;4990968;28;19997;-56
2023/03/31 06:13:40;;;;;;;;;;;;;;;17.24;100.00;99395.34;4985133;28;19918;-56
2023/03/31 06:16:06;;;;;;;;;;;;;;;17.16;100.00;99398.63;4991981;28;19949;-56
2023/03/31 06:18:32;;;;;;;;;;;;;;;17.30;100.00;99382.63;4992904;28;19921;-55
2023/03/31 06:20:57;;;;;;;;;;;;;;;17.89;100.00;99377.50;4987478;28;19913;-52
2023/03/31 06:23:24;;;;;;;;;;;;;;;17.42;100.00;99380.44;4988936;28;20009;-51
2023/03/31 06:25:50;;;;;;;;;;;;;;;17.00;100.00;99374.34;4991702;28;19914;-55
2023/03/31 06:28:16;;;;;;;;;;;;;;;17.81;100.00;99372.66;4983652;28;19945;-56
2023/03/31 06:30:42;;;;;;;;;;;;;;;17.46;100.00;99369.88;4984830;28;19941;-54
2023/03/31 06:33:07;;;;;;;;;;;;;;;17.65;100.00;99370.06;4984123;28;19940;-54
2023/03/31 06:35:36;;;;;;;;;;;;;;;17.54;100.00;99366.59;4988230;28;19921;-52
2023/03/31 06:38:02;;;;;;;;;;;;;;;17.43;100.00;99378.53;4992985;28;19933;-52
2023/03/31 06:40:29;;;;;;;;;;;;;;;17.24;100.00;99367.53;4988335;28;19960;-53
2023/03/31 06:42:54;;;;;;;;;;;;;;;17.80;100.00;99368.34;4989123;28;19918;-55
2023/03/31 06:45:20;;;;;;;;;;;;;;;17.62;100.00;99363.31;4988110;28;19914;-55
2023/03/31 06:47:46;;;;;;;;;;;;;;;17.43;100.00;99371.25;4990447;28;19921;-58
2023/03/31 06:50:11;;;;;;;;;;;;;;;16.58;100.00;99372.75;4992067;28;19985;-56
2023/03/31 06:52:39;;;;;;;;;;;;;;;17.76;100.00;99354.56;4990043;28;19929;-58
2023/03/31 06:55:05;;;;;;;;;;;;;;;18.00;100.00;99362.78;4990793;28;19918;-59
2023/03/31 06:57:32;;;;;;;;;;;;;;;18.55;100.00;99351.00;4990752;28;19925;-59
2023/03/31 06:59:58;;;;;;;;;;;;;;;17.89;100.00;99350.44;4990994;28;19914;-59
2023/03/31 07:02:23;;;;;;;;;;;;;;;17.95;100.00;99353.91;4985256;28;19918;-59
2023/03/31 07:04:48;;;;;;;;;;;;;;;18.16;100.00;99344.56;4993035;28;19914;-59
2023/03/31 07:07:15;;;;;;;;;;;;;;;18.11;100.00;99350.03;4993554;28;19914;-60
2023/03/31 07:09:40;;;;;;;;;;;;;;;18.86;100.00;99330.94;4988144;28;19914;-60
2023/03/31 07:12:05;;;;;;;;;;;;;;;18.61;100.00;99330.94;4987881;28;19924;-59
2023/03/31 07:14:31;;;;;;;;;;;;;;;18.31;100.00;99324.69;4992629;28;19914;-58
2023/03/31 07:16:57;;;;;;;;;;;;;;;18.52;100.00;99326.44;4986313;28;19921;-56
2023/03/31 07:19:22;;;;;;;;;;;;;;;19.12;100.00;99330.66;4990080;28;19918;-58
2023/03/31 07:21:48;;;;;;;;;;;;;;;19.51;100.00;99326.13;4986265;28;19918;-58
2023/03/31 07:24:14;;;;;;;;;;;;;;;19.83;100.00;99328.09;4985943;28;19926;-59
2023/03/31 07:26:39;;;;;;;;;;;;;;;20.38;100.00;99328.59;4993143;28;19922;-58
2023/03/31 07:29:05;;;;;;;;;;;;;;;20.02;100.00;99325.41;4989347;28;19964;-59
2023/03/31 07:31:30;;;;;;;;;;;;;;;19.39;100.00;99321.13;4991703;28;20063;-59
2023/03/31 07:33:56;;;;;;;;;;;;;;;19.32;100.00;99313.38;4991425;28;19922;-58
2023/03/31 07:36:21;;;;;;;;;;;;;;;19.16;100.00;99321.69;4991449;28;20037;-60
2023/03/31 07:38:48;;;;;;;;;;;;;;;19.37;100.00;99321.41;4995265;28;19918;-59
2023/03/31 07:41:16;;;;;;;;;;;;;;;19.26;100.00;99323.47;4987389;28;19914;-57
2023/03/31 07:43:43;;;;;;;;;;;;;;;20.17;100.00;99328.94;4994602;28;20047;-59
2023/03/31 07:46:19;;;;;;;;;;;;;;;20.03;100.00;99316.16;4989650;28;19914;-60
2023/03/31 07:48:45;;;;;;;;;;;;;;;19.10;100.00;99305.78;4990067;28;19914;-57
2023/03/31 07:51:12;;;;;;;;;;;;;;;18.92;100.00;99305.44;4989620;28;19956;-60
2023/03/31 07:53:37;;;;;;;;;;;;;;;19.10;100.00;99305.78;4989199;28;19914;-58
2023/03/31 07:56:03;;;;;;;;;;;;;;;19.27;100.00;99297.19;4991676;28;19921;-57
2023/03/31 07:58:28;;;;;;;;;;;;;;;19.38;100.00;99303.28;4990458;28;19942;-56
2023/03/31 08:00:54;;;;;;;;;;;;;;;19.16;100.00;99288.38;4985817;28;19922;-56
2023/03/31 08:03:20;;;;;;;;;;;;;;;18.62;100.00;99280.28;4990960;28;19936;-57
2023/03/31 08:05:45;;;;;;;;;;;;;;;18.56;100.00;99282.22;4989237;28;19914;-60
2023/03/31 08:08:11;;;;;;;;;;;;;;;18.77;100.00;99285.53;4993321;28;19964;-56
2023/03/31 08:10:36;;;;;;;;;;;;;;;18.84;100.00;99281.66;4992598;28;19925;-57
2023/03/31 08:13:01;;;;;;;;;;;;;;;18.78;100.00;99279.03;4976423;28;19960;-55
2023/03/31 08:15:27;;;;;;;;;;;;;;;18.91;100.00;99277.53;4986839;28;19936;-57
2023/03/31 08:17:52;;;;;;;;;;;;;;;18.61;100.00;99274.09;4990623;28;19922;-57
2023/03/31 08:20:17;;;;;;;;;;;;;;;18.98;100.00;99271.78;4984942;28;19914;-57
2023/03/31 08:22:43;;;;;;;;;;;;;;;18.59;100.00;99272.75;4983754;28;20038;-59
2023/03/31 08:25:08;;;;;;;;;;;;;;;18.93;100.00;99271.84;4984818;28;19929;-58
2023/03/31 08:27:35;;;;;;;;;;;;;;;19.14;100.00;99263.44;4981696;28;19914;-57
2023/03/31 08:30:03;;;;;;;;;;;;;;;18.60;100.00;99282.47;4988384;28;19932;-57
2023/03/31 08:32:30;;;;;;;;;;;;;;;19.74;100.00;99275.63;4983773;28;19922;-58
2023/03/31 08:34:55;;;;;;;;;;;;;;;18.83;100.00;99263.81;4982215;28;19969;-58
2023/03/31 08:37:21;;;;;;;;;;;;;;;18.83;100.00;99267.34;4987054;28;19940;-60
2023/03/31 08:39:46;;;;;;;;;;;;;;;18.66;100.00;99259.66;4990233;28;19973;-58
2023/03/31 08:42:19;;;;;;;;;;;;;;;19.30;100.00;99250.53;4987280;28;19926;-58
2023/03/31 08:44:52;;;;;;;;;;;;;;;18.66;100.00;99245.34;4986473;28;19914;-60
2023/03/31 08:47:21;;;;;;;;;;;;;;;18.49;100.00;99282.59;4989845;28;19937;-59
2023/03/31 08:49:52;;;;;;;;;;;;;;;18.60;100.00;99250.00;4987801;28;19914;-59
2023/03/31 08:52:22;;;;;;;;;;;;;;;18.86;100.00;99257.81;4984896;28;19920;-57
2023/03/31 08:54:52;;;;;;;;;;;;;;;18.48;100.00;99262.03;4987837;28;19979;-59
2023/03/31 08:57:20;;;;;;;;;;;;;;;19.08;100.00;99248.38;4985316;28;19914;-60
2023/03/31 08:59:46;;;;;;;;;;;;;;;19.23;100.00;99252.75;4987781;28;19937;-60
2023/03/31 09:02:17;;;;;;;;;;;;;;;18.62;100.00;99275.69;4998332;28;19978;-57
2023/03/31 09:04:42;;;;;;;;;;;;;;;18.49;100.00;99255.53;4982707;28;19936;-59
2023/03/31 09:07:14;;;;;;;;;;;;;;;18.53;100.00;99239.50;4987783;28;19914;-59
2023/03/31 09:09:42;;;;;;;;;;;;;;;18.65;100.00;99258.06;4984958;28;19973;-58
2023/03/31 09:12:15;;;;;;;;;;;;;;;19.88;100.00;99246.66;4988168;28;19920;-57
2023/03/31 09:14:47;;;;;;;;;;;;;;;19.04;100.00;99259.00;4979256;28;19982;-58
2023/03/31 09:17:19;;;;;;;;;;;;;;;19.45;100.00;99263.84;4986735;28;19913;-57
2023/03/31 09:19:49;;;;;;;;;;;;;;;19.06;100.00;99257.59;4986921;28;19913;-56
2023/03/31 09:22:25;;;;;;;;;;;;;;;19.92;100.00;99241.44;4982250;28;19914;-58
2023/03/31 09:25:06;;;;;;;;;;;;;;;19.84;100.00;99256.47;4984300;28;19914;-58
2023/03/31 09:27:36;;;;;;;;;;;;;;;19.83;100.00;99225.00;4985230;28;19920;-54
2023/03/31 09:30:17;;;;;;;;;;;;;;;19.56;100.00;99229.25;4984289;28;19914;-58
2023/03/31 09:32:42;;;;;;;;;;;;;;;19.59;100.00;99225.94;4992834;28;19914;-58
2023/03/31 09:35:11;;;;;;;;;;;;;;;19.35;100.00;99232.25;4982132;28;19933;-53
2023/03/31 09:37:37;;;;;;;;;;;;;;;19.02;100.00;99232.19;4985850;28;19913;-55
2023/03/31 09:40:07;;;;;;;;;;;;;;;19.81;100.00;99219.06;4990011;28;19932;-56
2023/03/31 09:42:35;;;;;;;;;;;;;;;19.38;100.00;99221.94;4991073;28;19922;-54
2023/03/31 09:45:01;;;;;;;;;;;;;;;19.55;100.00;99210.56;4989483;28;19921;-57
2023/03/31 09:47:38;;;;;;;;;;;;;;;19.59;100.00;99255.75;4980123;28;19914;-56
2023/03/31 09:50:05;;;;;;;;;;;;;;;19.37;100.00;99231.97;4992922;28;20652;-54
2023/03/31 09:52:32;;;;;;;;;;;;;;;19.87;100.00;99217.91;4989330;28;19914;-56
2023/03/31 09:54:59;;;;;;;;;;;;;;;19.94;100.00;99216.75;4987824;28;19937;-55
2023/03/31 09:57:26;;;;;;;;;;;;;;;19.49;100.00;99245.09;4983637;28;19983;-55
2023/03/31 09:59:52;;;;;;;;;;;;;;;19.70;100.00;99209.53;4987502;28;19922;-56
2023/03/31 10:02:28;;;;;;;;;;;;;;;19.88;100.00;99211.38;4980120;28;19914;-54
2023/03/31 10:04:54;;;;;;;;;;;;;;;19.51;100.00;99226.63;4983783;28;19914;-54
2023/03/31 10:07:20;;;;;;;;;;;;;;;20.11;100.00;99210.75;4986347;28;19926;-55
2023/03/31 10:09:46;;;;;;;;;;;;;;;20.55;100.00;99216.72;4990724;28;19921;-54
2023/03/31 10:12:16;;;;;;;;;;;;;;;20.66;100.00;99215.41;4991694;28;19973;-53
2023/03/31 10:14:45;;;;;;;;;;;;;;;19.96;100.00;99238.94;4996919;28;19918;-53
2023/03/31 10:17:15;;;;;;;;;;;;;;;20.41;100.00;99252.81;4987868;28;20022;-51
2023/03/31 10:19:51;;;;;;;;;;;;;;;20.37;100.00;99193.97;5018776;28;19956;-54
2023/03/31 10:22:20;;;;;;;;;;;;;;;20.80;100.00;99198.31;4989825;28;19950;-54
2023/03/31 10:24:47;;;;;;;;;;;;;;;20.73;100.00;99201.41;4986989;28;19914;-55
2023/03/31 10:27:23;;;;;;;;;;;;;;;20.60;100.00;99186.75;4987250;28;20377;-54
2023/03/31 10:29:53;;;;;;;;;;;;;;;20.63;100.00;99191.56;4990262;28;19914;-52
2023/03/31 10:32:27;;;;;;;;;;;;;;;20.90;100.00;99181.78;4986375;28;19929;-56
2023/03/31 10:34:53;;;;;;;;;;;;;;;20.98;100.00;99181.06;4988060;28;19918;-50
2023/03/31 10:37:21;;;;;;;;;;;;;;;21.12;100.00;99180.22;4988577;28;19922;-55
2023/03/31 10:39:47;;;;;;;;;;;;;;;21.14;100.00;99178.81;4999498;28;19918;-54
2023/03/31 10:42:23;;;;;;;;;;;;;;;21.78;100.00;99186.00;4987283;28;19925;-53
2023/03/31 10:44:49;;;;;;;;;;;;;;;21.12;100.00;99177.50;4991605;28;19968;-53
2023/03/31 10:47:17;;;;;;;;;;;;;;;23.80;94.14;99193.00;4989198;28;19914;-53
2023/03/31 10:49:43;;;;;;;;;;;;;;;20.94;100.00;99187.44;5002475;28;19914;-53
2023/03/31 10:52:17;;;;;;;;;;;;;;;20.67;100.00;99165.41;4992437;28;19917;-54
2023/03/31 10:54:46;;;;;;;;;;;;;;;20.54;100.00;99187.97;4990421;28;19953;-51
2023/03/31 10:57:13;;;;;;;;;;;;;;;20.27;100.00;99178.69;4992344;28;20061;-56
2023/03/31 10:59:42;;;;;;;;;;;;;;;19.88;100.00;99169.88;4991393;28;19918;-53
2023/03/31 11:02:39;;;;;;;;;;;;;;;19.38;100.00;99209.19;4997223;28;19921;-55
2023/03/31 11:05:24;;;;;;;;;;;;;;;20.09;100.00;99186.63;5025352;28;19922;-54
2023/03/31 11:08:05;;;;;;;;;;;;;;;20.13;100.00;99165.94;4994407;28;19978;-54
2023/03/31 11:10:36;;;;;;;;;;;;;;;20.20;100.00;99173.69;5003982;28;19914;-52
2023/03/31 11:13:16;;;;;;;;;;;;;;;19.87;100.00;99158.25;4993474;28;19914;-48
2023/03/31 11:15:55;;;;;;;;;;;;;;;20.01;100.00;99152.03;4991245;28;19914;-54
2023/03/31 11:18:31;;;;;;;;;;;;;;;19.94;100.00;99160.56;4992415;28;19914;-50
2023/03/31 11:21:17;;;;;;;;;;;;;;;19.93;100.00;99164.38;4993027;28;19914;-51
2023/03/31 11:23:42;;;;;;;;;;;;;;;19.98;100.00;99155.34;4982647;28;20534;-50
2023/03/31 11:26:26;;;;;;;;;;;;;;;19.84;100.00;99139.03;4985586;28;19952;-50
2023/03/31 11:29:01;;;;;;;;;;;;;;;19.83;100.00;99154.50;4991047;28;19940;-53
2023/03/31 11:31:35;;;;;;;;;;;;;;;19.94;100.00;99133.44;4990506;28;19939;-51
2023/03/31 11:34:21;;;;;;;;;;;;;;;20.30;100.00;99129.25;4989384;28;19914;-51
2023/03/31 11:36:59;;;;;;;;;;;;;;;20.02;100.00;99126.50;4980871;28;19922;-54
2023/03/31 11:39:43;;;;;;;;;;;;;;;20.18;100.00;99135.16;4981816;28;19929;-55
2023/03/31 11:42:15;;;;;;;;;;;;;;;19.92;100.00;99179.88;4991958;28;20423;-52
2023/03/31 11:44:44;;;;;;;;;;;;;;;20.06;100.00;99130.22;4985422;28;19922;-54
2023/03/31 11:47:17;;;;;;;;;;;;;;;20.28;100.00;99118.69;4990964;28;19921;-51
2023/03/31 11:49:54;;;;;;;;;;;;;;;20.12;100.00;99128.22;4988922;28;19937;-52
2023/03/31 11:52:24;;;;;;;;;;;;;;;20.30;100.00;99159.91;4991824;28;19925;-51
2023/03/31 11:55:06;;;;;;;;;;;;;;;20.04;100.00;99132.44;4988483;28;19914;-53
2023/03/31 11:57:35;;;;;;;;;;;;;;;20.06;99.47;99138.38;4989355;28;20005;-51
2023/03/31 12:00:09;;;;;;;;;;;;;;;20.61;96.43;99120.47;4986181;28;20027;-53
2023/03/31 12:02:37;;;;;;;;;;;;;;;20.28;96.97;99115.16;4986983;28;19922;-52
2023/03/31 12:05:04;;;;;;;;;;;;;;;20.03;97.43;99117.28;4986259;28;19936;-52
2023/03/31 12:07:30;;;;;;;;;;;;;;;20.30;96.20;99123.81;4992663;28;19981;-52
2023/03/31 12:10:04;;;;;;;;;;;;;;;20.66;95.19;99125.78;4987037;28;19914;-54
2023/03/31 12:12:38;;;;;;;;;;;;;;;20.63;100.00;99107.38;4984198;28;19997;-52
2023/03/31 12:15:13;;;;;;;;;;;;;;;20.30;100.00;99108.31;4985708;28;19918;-53
2023/03/31 12:17:40;;;;;;;;;;;;;;;20.28;100.00;99101.59;4983576;28;19949;-50
2023/03/31 12:20:13;;;;;;;;;;;;;;;19.84;100.00;99096.44;4991387;28;20020;-52
2023/03/31 12:22:42;;;;;;;;;;;;;;;19.56;100.00;99096.38;4989345;28;19960;-53
2023/03/31 12:25:11;;;;;;;;;;;;;;;19.61;100.00;99099.03;4986309;28;19990;-56
2023/03/31 12:27:41;;;;;;;;;;;;;;;19.73;100.00;99097.72;4990033;28;19914;-52
2023/03/31 12:30:12;;;;;;;;;;;;;;;19.33;100.00;99109.00;4986388;28;19914;-53
2023/03/31 12:32:44;;;;;;;;;;;;;;;19.42;100.00;99106.41;4987391;28;19914;-55
2023/03/31 12:35:21;;;;;;;;;;;;;;;19.27;100.00;99116.41;4990163;28;19935;-58
2023/03/31 12:37:47;;;;;;;;;;;;;;;19.71;100.00;99099.94;4986076;28;19922;-57
2023/03/31 12:40:20;;;;;;;;;;;;;;;20.29;100.00;99095.03;4987600;28;19914;-54
2023/03/31 12:42:58;;;;;;;;;;;;;;;20.54;100.00;99095.63;4986982;28;19918;-57